<?xml version="1.0" encoding="UTF-8" standalone="no" ?>
<gpx xmlns="http://www.topografix.com/GPX/1/1" xmlns:xsi="http://www.w3.org/2001/XMLSchema-instance" xsi:schemaLocation="http://www.topografix.com/GPX/1/1 http://www.topografix.com/GPX/1/1/gpx.xsd" version="1.1" creator="VisuGPX - https://www.visugpx.com">
  <metadata>
    <name>Grand Ratz depuis la Placette</name>
    <desc><![CDATA[Balade à la journée pour découvrir la montagne du grand ratz]]></desc>
  </metadata>
  <trk>
    <name><![CDATA[11287655-Grand Ratz depuis la Placette]]></name>
    <trkseg>
      <trkpt lat="45.33011" lon="5.65816">
        <ele>590</ele>
        <time>2020-05-13T14:27:39Z</time>
      </trkpt>
      <trkpt lat="45.33017" lon="5.65768">
        <ele>591</ele>
        <time>2020-05-13T14:28:06Z</time>
      </trkpt>
      <trkpt lat="45.33095" lon="5.65781">
        <ele>595</ele>
        <time>2020-05-13T14:29:09Z</time>
      </trkpt>
      <trkpt lat="45.33171" lon="5.6573">
        <ele>602</ele>
        <time>2020-05-13T14:30:17Z</time>
      </trkpt>
      <trkpt lat="45.3326" lon="5.65648">
        <ele>613</ele>
        <time>2020-05-13T14:31:42Z</time>
      </trkpt>
      <trkpt lat="45.3347" lon="5.65694">
        <ele>621</ele>
        <time>2020-05-13T14:34:32Z</time>
      </trkpt>
      <trkpt lat="45.3356" lon="5.65725">
        <ele>625</ele>
        <time>2020-05-13T14:35:46Z</time>
      </trkpt>
      <trkpt lat="45.33678" lon="5.65732">
        <ele>635</ele>
        <time>2020-05-13T14:37:20Z</time>
      </trkpt>
      <trkpt lat="45.33833" lon="5.65788">
        <ele>659</ele>
        <time>2020-05-13T14:39:28Z</time>
      </trkpt>
      <trkpt lat="45.33887" lon="5.65873">
        <ele>660</ele>
        <time>2020-05-13T14:40:33Z</time>
      </trkpt>
      <trkpt lat="45.34019" lon="5.65959">
        <ele>670</ele>
        <time>2020-05-13T14:42:29Z</time>
      </trkpt>
      <trkpt lat="45.34123" lon="5.65954">
        <ele>675</ele>
        <time>2020-05-13T14:43:52Z</time>
      </trkpt>
      <trkpt lat="45.34222" lon="5.66036">
        <ele>663</ele>
        <time>2020-05-13T14:45:24Z</time>
      </trkpt>
      <trkpt lat="45.3431" lon="5.66077">
        <ele>658</ele>
        <time>2020-05-13T14:46:38Z</time>
      </trkpt>
      <trkpt lat="45.34383" lon="5.66061">
        <ele>654</ele>
        <time>2020-05-13T14:47:37Z</time>
      </trkpt>
      <trkpt lat="45.34439" lon="5.65992">
        <ele>662</ele>
        <time>2020-05-13T14:48:37Z</time>
      </trkpt>
      <trkpt lat="45.34545" lon="5.65977">
        <ele>655</ele>
        <time>2020-05-13T14:50:02Z</time>
      </trkpt>
      <trkpt lat="45.34676" lon="5.66056">
        <ele>644</ele>
        <time>2020-05-13T14:51:56Z</time>
      </trkpt>
      <trkpt lat="45.34778" lon="5.66089">
        <ele>646</ele>
        <time>2020-05-13T14:53:20Z</time>
      </trkpt>
      <trkpt lat="45.34875" lon="5.66112">
        <ele>649</ele>
        <time>2020-05-13T14:54:38Z</time>
      </trkpt>
      <trkpt lat="45.34959" lon="5.66222">
        <ele>642</ele>
        <time>2020-05-13T14:56:10Z</time>
      </trkpt>
      <trkpt lat="45.35029" lon="5.66166">
        <ele>643</ele>
        <time>2020-05-13T14:57:14Z</time>
      </trkpt>
      <trkpt lat="45.34973" lon="5.66072">
        <ele>651</ele>
        <time>2020-05-13T14:58:23Z</time>
      </trkpt>
      <trkpt lat="45.35" lon="5.6599">
        <ele>663</ele>
        <time>2020-05-13T14:59:14Z</time>
      </trkpt>
      <trkpt lat="45.35067" lon="5.65964">
        <ele>664</ele>
        <time>2020-05-13T15:00:10Z</time>
      </trkpt>
      <trkpt lat="45.35129" lon="5.65947">
        <ele>669</ele>
        <time>2020-05-13T15:01:01Z</time>
      </trkpt>
      <trkpt lat="45.35185" lon="5.65911">
        <ele>676</ele>
        <time>2020-05-13T15:01:50Z</time>
      </trkpt>
      <trkpt lat="45.35293" lon="5.65837">
        <ele>689</ele>
        <time>2020-05-13T15:03:26Z</time>
      </trkpt>
      <trkpt lat="45.35366" lon="5.65773">
        <ele>696</ele>
        <time>2020-05-13T15:04:34Z</time>
      </trkpt>
      <trkpt lat="45.3544" lon="5.65755">
        <ele>701</ele>
        <time>2020-05-13T15:05:35Z</time>
      </trkpt>
      <trkpt lat="45.3551" lon="5.6574">
        <ele>702</ele>
        <time>2020-05-13T15:06:31Z</time>
      </trkpt>
      <trkpt lat="45.35576" lon="5.65666">
        <ele>700</ele>
        <time>2020-05-13T15:07:39Z</time>
      </trkpt>
      <trkpt lat="45.35635" lon="5.65462">
        <ele>695</ele>
        <time>2020-05-13T15:09:43Z</time>
      </trkpt>
      <trkpt lat="45.35644" lon="5.65283">
        <ele>696</ele>
        <time>2020-05-13T15:11:24Z</time>
      </trkpt>
      <trkpt lat="45.35651" lon="5.65084">
        <ele>698</ele>
        <time>2020-05-13T15:13:16Z</time>
      </trkpt>
      <trkpt lat="45.35746" lon="5.65275">
        <ele>690</ele>
        <time>2020-05-13T15:15:27Z</time>
      </trkpt>
      <trkpt lat="45.35831" lon="5.65408">
        <ele>694</ele>
        <time>2020-05-13T15:17:08Z</time>
      </trkpt>
      <trkpt lat="45.35881" lon="5.65462">
        <ele>700</ele>
        <time>2020-05-13T15:17:59Z</time>
      </trkpt>
      <trkpt lat="45.35888" lon="5.65523">
        <ele>699</ele>
        <time>2020-05-13T15:18:34Z</time>
      </trkpt>
      <trkpt lat="45.35992" lon="5.65594">
        <ele>705</ele>
        <time>2020-05-13T15:20:06Z</time>
      </trkpt>
      <trkpt lat="45.36099" lon="5.65615">
        <ele>703</ele>
        <time>2020-05-13T15:21:32Z</time>
      </trkpt>
      <trkpt lat="45.36191" lon="5.6563">
        <ele>698</ele>
        <time>2020-05-13T15:22:47Z</time>
      </trkpt>
      <trkpt lat="45.3627" lon="5.65628">
        <ele>696</ele>
        <time>2020-05-13T15:23:50Z</time>
      </trkpt>
      <trkpt lat="45.36347" lon="5.65617">
        <ele>697</ele>
        <time>2020-05-13T15:24:52Z</time>
      </trkpt>
      <trkpt lat="45.36384" lon="5.65617">
        <ele>696</ele>
        <time>2020-05-13T15:25:21Z</time>
      </trkpt>
      <trkpt lat="45.36425" lon="5.656">
        <ele>696</ele>
        <time>2020-05-13T15:25:56Z</time>
      </trkpt>
      <trkpt lat="45.36475" lon="5.65605">
        <ele>692</ele>
        <time>2020-05-13T15:26:36Z</time>
      </trkpt>
      <trkpt lat="45.36515" lon="5.65561">
        <ele>693</ele>
        <time>2020-05-13T15:27:16Z</time>
      </trkpt>
      <trkpt lat="45.3653" lon="5.6552">
        <ele>693</ele>
        <time>2020-05-13T15:27:42Z</time>
      </trkpt>
      <trkpt lat="45.36575" lon="5.65494">
        <ele>688</ele>
        <time>2020-05-13T15:28:21Z</time>
      </trkpt>
      <trkpt lat="45.3658" lon="5.65444">
        <ele>686</ele>
        <time>2020-05-13T15:28:49Z</time>
      </trkpt>
      <trkpt lat="45.36547" lon="5.65315">
        <ele>683</ele>
        <time>2020-05-13T15:30:07Z</time>
      </trkpt>
      <trkpt lat="45.36491" lon="5.65303">
        <ele>689</ele>
        <time>2020-05-13T15:30:52Z</time>
      </trkpt>
      <trkpt lat="45.36441" lon="5.65315">
        <ele>695</ele>
        <time>2020-05-13T15:31:33Z</time>
      </trkpt>
      <trkpt lat="45.36382" lon="5.65285">
        <ele>697</ele>
        <time>2020-05-13T15:32:23Z</time>
      </trkpt>
      <trkpt lat="45.36366" lon="5.65257">
        <ele>695</ele>
        <time>2020-05-13T15:32:43Z</time>
      </trkpt>
      <trkpt lat="45.36304" lon="5.6523">
        <ele>695</ele>
        <time>2020-05-13T15:33:35Z</time>
      </trkpt>
      <trkpt lat="45.36268" lon="5.65255">
        <ele>696</ele>
        <time>2020-05-13T15:34:07Z</time>
      </trkpt>
      <trkpt lat="45.36238" lon="5.6526">
        <ele>698</ele>
        <time>2020-05-13T15:34:31Z</time>
      </trkpt>
      <trkpt lat="45.36191" lon="5.65163">
        <ele>690</ele>
        <time>2020-05-13T15:35:38Z</time>
      </trkpt>
      <trkpt lat="45.36119" lon="5.65087">
        <ele>690</ele>
        <time>2020-05-13T15:36:49Z</time>
      </trkpt>
      <trkpt lat="45.36031" lon="5.65005">
        <ele>697</ele>
        <time>2020-05-13T15:38:14Z</time>
      </trkpt>
      <trkpt lat="45.36012" lon="5.64888">
        <ele>693</ele>
        <time>2020-05-13T15:39:21Z</time>
      </trkpt>
      <trkpt lat="45.35985" lon="5.64811">
        <ele>693</ele>
        <time>2020-05-13T15:40:10Z</time>
      </trkpt>
      <trkpt lat="45.35951" lon="5.64701">
        <ele>684</ele>
        <time>2020-05-13T15:41:17Z</time>
      </trkpt>
      <trkpt lat="45.3594" lon="5.64663">
        <ele>682</ele>
        <time>2020-05-13T15:41:40Z</time>
      </trkpt>
      <trkpt lat="45.35935" lon="5.64617">
        <ele>679</ele>
        <time>2020-05-13T15:42:06Z</time>
      </trkpt>
      <trkpt lat="45.35904" lon="5.64543">
        <ele>680</ele>
        <time>2020-05-13T15:42:55Z</time>
      </trkpt>
      <trkpt lat="45.359" lon="5.64467">
        <ele>676</ele>
        <time>2020-05-13T15:43:38Z</time>
      </trkpt>
      <trkpt lat="45.35793" lon="5.64339">
        <ele>676</ele>
        <time>2020-05-13T15:45:30Z</time>
      </trkpt>
      <trkpt lat="45.35757" lon="5.64344">
        <ele>683</ele>
        <time>2020-05-13T15:45:59Z</time>
      </trkpt>
      <trkpt lat="45.35714" lon="5.64293">
        <ele>679</ele>
        <time>2020-05-13T15:46:43Z</time>
      </trkpt>
      <trkpt lat="45.3566" lon="5.64181">
        <ele>669</ele>
        <time>2020-05-13T15:48:00Z</time>
      </trkpt>
      <trkpt lat="45.35624" lon="5.64084">
        <ele>651</ele>
        <time>2020-05-13T15:49:02Z</time>
      </trkpt>
      <trkpt lat="45.35583" lon="5.6404">
        <ele>657</ele>
        <time>2020-05-13T15:49:43Z</time>
      </trkpt>
      <trkpt lat="45.35648" lon="5.63977">
        <ele>628</ele>
        <time>2020-05-13T15:50:46Z</time>
      </trkpt>
      <trkpt lat="45.35667" lon="5.64076">
        <ele>641</ele>
        <time>2020-05-13T15:51:43Z</time>
      </trkpt>
      <trkpt lat="45.358" lon="5.6415">
        <ele>610</ele>
        <time>2020-05-13T15:53:38Z</time>
      </trkpt>
      <trkpt lat="45.35874" lon="5.64178">
        <ele>592</ele>
        <time>2020-05-13T15:54:39Z</time>
      </trkpt>
      <trkpt lat="45.35956" lon="5.64237">
        <ele>577</ele>
        <time>2020-05-13T15:55:53Z</time>
      </trkpt>
      <trkpt lat="45.35997" lon="5.64232">
        <ele>560</ele>
        <time>2020-05-13T15:56:26Z</time>
      </trkpt>
      <trkpt lat="45.35994" lon="5.64155">
        <ele>545</ele>
        <time>2020-05-13T15:57:09Z</time>
      </trkpt>
      <trkpt lat="45.35936" lon="5.64028">
        <ele>536</ele>
        <time>2020-05-13T15:58:34Z</time>
      </trkpt>
      <trkpt lat="45.35902" lon="5.63954">
        <ele>534</ele>
        <time>2020-05-13T15:59:24Z</time>
      </trkpt>
      <trkpt lat="45.3592" lon="5.63818">
        <ele>522</ele>
        <time>2020-05-13T16:00:42Z</time>
      </trkpt>
      <trkpt lat="45.35813" lon="5.63785">
        <ele>532</ele>
        <time>2020-05-13T16:02:09Z</time>
      </trkpt>
      <trkpt lat="45.35771" lon="5.6376">
        <ele>536</ele>
        <time>2020-05-13T16:02:46Z</time>
      </trkpt>
      <trkpt lat="45.35675" lon="5.63665">
        <ele>535</ele>
        <time>2020-05-13T16:04:20Z</time>
      </trkpt>
      <trkpt lat="45.35597" lon="5.63627">
        <ele>535</ele>
        <time>2020-05-13T16:05:26Z</time>
      </trkpt>
      <trkpt lat="45.35522" lon="5.63579">
        <ele>537</ele>
        <time>2020-05-13T16:06:31Z</time>
      </trkpt>
      <trkpt lat="45.35463" lon="5.63561">
        <ele>541</ele>
        <time>2020-05-13T16:07:20Z</time>
      </trkpt>
      <trkpt lat="45.35379" lon="5.63543">
        <ele>549</ele>
        <time>2020-05-13T16:08:28Z</time>
      </trkpt>
      <trkpt lat="45.35165" lon="5.63433">
        <ele>558</ele>
        <time>2020-05-13T16:11:30Z</time>
      </trkpt>
      <trkpt lat="45.35088" lon="5.63369">
        <ele>554</ele>
        <time>2020-05-13T16:12:41Z</time>
      </trkpt>
      <trkpt lat="45.35018" lon="5.63331">
        <ele>556</ele>
        <time>2020-05-13T16:13:41Z</time>
      </trkpt>
      <trkpt lat="45.34966" lon="5.63267">
        <ele>554</ele>
        <time>2020-05-13T16:14:36Z</time>
      </trkpt>
      <trkpt lat="45.34855" lon="5.63298">
        <ele>559</ele>
        <time>2020-05-13T16:16:07Z</time>
      </trkpt>
      <trkpt lat="45.34769" lon="5.63303">
        <ele>559</ele>
        <time>2020-05-13T16:17:16Z</time>
      </trkpt>
      <trkpt lat="45.34661" lon="5.63357">
        <ele>570</ele>
        <time>2020-05-13T16:18:48Z</time>
      </trkpt>
      <trkpt lat="45.34586" lon="5.634">
        <ele>565</ele>
        <time>2020-05-13T16:19:52Z</time>
      </trkpt>
      <trkpt lat="45.34586" lon="5.63443">
        <ele>568</ele>
        <time>2020-05-13T16:20:16Z</time>
      </trkpt>
      <trkpt lat="45.34455" lon="5.634">
        <ele>576</ele>
        <time>2020-05-13T16:22:04Z</time>
      </trkpt>
      <trkpt lat="45.34333" lon="5.63377">
        <ele>589</ele>
        <time>2020-05-13T16:23:43Z</time>
      </trkpt>
      <trkpt lat="45.3422" lon="5.63357">
        <ele>600</ele>
        <time>2020-05-13T16:25:14Z</time>
      </trkpt>
      <trkpt lat="45.34161" lon="5.63377">
        <ele>610</ele>
        <time>2020-05-13T16:26:02Z</time>
      </trkpt>
      <trkpt lat="45.34222" lon="5.63431">
        <ele>621</ele>
        <time>2020-05-13T16:27:00Z</time>
      </trkpt>
      <trkpt lat="45.34288" lon="5.63553">
        <ele>636</ele>
        <time>2020-05-13T16:28:27Z</time>
      </trkpt>
      <trkpt lat="45.34245" lon="5.63538">
        <ele>645</ele>
        <time>2020-05-13T16:29:02Z</time>
      </trkpt>
      <trkpt lat="45.34177" lon="5.63507">
        <ele>651</ele>
        <time>2020-05-13T16:29:59Z</time>
      </trkpt>
      <trkpt lat="45.34129" lon="5.63527">
        <ele>671</ele>
        <time>2020-05-13T16:30:39Z</time>
      </trkpt>
      <trkpt lat="45.34082" lon="5.63497">
        <ele>671</ele>
        <time>2020-05-13T16:31:20Z</time>
      </trkpt>
      <trkpt lat="45.34034" lon="5.63476">
        <ele>666</ele>
        <time>2020-05-13T16:32:01Z</time>
      </trkpt>
      <trkpt lat="45.33987" lon="5.63479">
        <ele>671</ele>
        <time>2020-05-13T16:32:38Z</time>
      </trkpt>
      <trkpt lat="45.33937" lon="5.63499">
        <ele>689</ele>
        <time>2020-05-13T16:33:20Z</time>
      </trkpt>
      <trkpt lat="45.34016" lon="5.63553">
        <ele>707</ele>
        <time>2020-05-13T16:34:30Z</time>
      </trkpt>
      <trkpt lat="45.34091" lon="5.63601">
        <ele>707</ele>
        <time>2020-05-13T16:35:36Z</time>
      </trkpt>
      <trkpt lat="45.34136" lon="5.63617">
        <ele>702</ele>
        <time>2020-05-13T16:36:13Z</time>
      </trkpt>
      <trkpt lat="45.34073" lon="5.63696">
        <ele>727</ele>
        <time>2020-05-13T16:37:20Z</time>
      </trkpt>
      <trkpt lat="45.34016" lon="5.63744">
        <ele>731</ele>
        <time>2020-05-13T16:38:13Z</time>
      </trkpt>
      <trkpt lat="45.33942" lon="5.63752">
        <ele>735</ele>
        <time>2020-05-13T16:39:13Z</time>
      </trkpt>
      <trkpt lat="45.3389" lon="5.63729">
        <ele>741</ele>
        <time>2020-05-13T16:39:56Z</time>
      </trkpt>
      <trkpt lat="45.33851" lon="5.6367">
        <ele>751</ele>
        <time>2020-05-13T16:40:42Z</time>
      </trkpt>
      <trkpt lat="45.33757" lon="5.63627">
        <ele>753</ele>
        <time>2020-05-13T16:42:01Z</time>
      </trkpt>
      <trkpt lat="45.33653" lon="5.63622">
        <ele>756</ele>
        <time>2020-05-13T16:43:24Z</time>
      </trkpt>
      <trkpt lat="45.33578" lon="5.63627">
        <ele>759</ele>
        <time>2020-05-13T16:44:24Z</time>
      </trkpt>
      <trkpt lat="45.33517" lon="5.63663">
        <ele>765</ele>
        <time>2020-05-13T16:45:17Z</time>
      </trkpt>
      <trkpt lat="45.33458" lon="5.63721">
        <ele>767</ele>
        <time>2020-05-13T16:46:15Z</time>
      </trkpt>
      <trkpt lat="45.33393" lon="5.63818">
        <ele>771</ele>
        <time>2020-05-13T16:47:30Z</time>
      </trkpt>
      <trkpt lat="45.33298" lon="5.63969">
        <ele>777</ele>
        <time>2020-05-13T16:49:24Z</time>
      </trkpt>
      <trkpt lat="45.33207" lon="5.64094">
        <ele>778</ele>
        <time>2020-05-13T16:51:06Z</time>
      </trkpt>
      <trkpt lat="45.3314" lon="5.64181">
        <ele>781</ele>
        <time>2020-05-13T16:52:18Z</time>
      </trkpt>
      <trkpt lat="45.33063" lon="5.64242">
        <ele>783</ele>
        <time>2020-05-13T16:53:29Z</time>
      </trkpt>
      <trkpt lat="45.32999" lon="5.64298">
        <ele>783</ele>
        <time>2020-05-13T16:54:29Z</time>
      </trkpt>
      <trkpt lat="45.3295" lon="5.64321">
        <ele>785</ele>
        <time>2020-05-13T16:55:10Z</time>
      </trkpt>
      <trkpt lat="45.3288" lon="5.64247">
        <ele>800</ele>
        <time>2020-05-13T16:56:20Z</time>
      </trkpt>
      <trkpt lat="45.32891" lon="5.64199">
        <ele>806</ele>
        <time>2020-05-13T16:56:48Z</time>
      </trkpt>
      <trkpt lat="45.32954" lon="5.64173">
        <ele>803</ele>
        <time>2020-05-13T16:57:41Z</time>
      </trkpt>
      <trkpt lat="45.32941" lon="5.64084">
        <ele>820</ele>
        <time>2020-05-13T16:58:32Z</time>
      </trkpt>
      <trkpt lat="45.33015" lon="5.64051">
        <ele>819</ele>
        <time>2020-05-13T16:59:34Z</time>
      </trkpt>
      <trkpt lat="45.33033" lon="5.63969">
        <ele>824</ele>
        <time>2020-05-13T17:00:23Z</time>
      </trkpt>
      <trkpt lat="45.32993" lon="5.63946">
        <ele>834</ele>
        <time>2020-05-13T17:00:57Z</time>
      </trkpt>
      <trkpt lat="45.32964" lon="5.63834">
        <ele>834</ele>
        <time>2020-05-13T17:02:04Z</time>
      </trkpt>
      <trkpt lat="45.32945" lon="5.63744">
        <ele>834</ele>
        <time>2020-05-13T17:02:57Z</time>
      </trkpt>
      <trkpt lat="45.32907" lon="5.63675">
        <ele>828</ele>
        <time>2020-05-13T17:03:47Z</time>
      </trkpt>
      <trkpt lat="45.32846" lon="5.63642">
        <ele>827</ele>
        <time>2020-05-13T17:04:39Z</time>
      </trkpt>
      <trkpt lat="45.3278" lon="5.63612">
        <ele>829</ele>
        <time>2020-05-13T17:05:34Z</time>
      </trkpt>
      <trkpt lat="45.32721" lon="5.63617">
        <ele>825</ele>
        <time>2020-05-13T17:06:22Z</time>
      </trkpt>
      <trkpt lat="45.32686" lon="5.63663">
        <ele>843</ele>
        <time>2020-05-13T17:07:00Z</time>
      </trkpt>
      <trkpt lat="45.32615" lon="5.63675">
        <ele>839</ele>
        <time>2020-05-13T17:07:57Z</time>
      </trkpt>
      <trkpt lat="45.32566" lon="5.63698">
        <ele>843</ele>
        <time>2020-05-13T17:08:38Z</time>
      </trkpt>
      <trkpt lat="45.32518" lon="5.63688">
        <ele>842</ele>
        <time>2020-05-13T17:09:17Z</time>
      </trkpt>
      <trkpt lat="45.32502" lon="5.6367">
        <ele>835</ele>
        <time>2020-05-13T17:09:34Z</time>
      </trkpt>
      <trkpt lat="45.32473" lon="5.63673">
        <ele>842</ele>
        <time>2020-05-13T17:09:57Z</time>
      </trkpt>
      <trkpt lat="45.32417" lon="5.63737">
        <ele>876</ele>
        <time>2020-05-13T17:10:54Z</time>
      </trkpt>
      <trkpt lat="45.32216" lon="5.63816">
        <ele>885</ele>
        <time>2020-05-13T17:13:41Z</time>
      </trkpt>
      <trkpt lat="45.32172" lon="5.63885">
        <ele>887</ele>
        <time>2020-05-13T17:14:34Z</time>
      </trkpt>
      <trkpt lat="45.32128" lon="5.63964">
        <ele>884</ele>
        <time>2020-05-13T17:15:30Z</time>
      </trkpt>
      <trkpt lat="45.3203" lon="5.63887">
        <ele>881</ele>
        <time>2020-05-13T17:17:00Z</time>
      </trkpt>
      <trkpt lat="45.31963" lon="5.63844">
        <ele>883</ele>
        <time>2020-05-13T17:17:59Z</time>
      </trkpt>
      <trkpt lat="45.31922" lon="5.63841">
        <ele>887</ele>
        <time>2020-05-13T17:18:32Z</time>
      </trkpt>
      <trkpt lat="45.31852" lon="5.63864">
        <ele>899</ele>
        <time>2020-05-13T17:19:29Z</time>
      </trkpt>
      <trkpt lat="45.31863" lon="5.63949">
        <ele>912</ele>
        <time>2020-05-13T17:20:18Z</time>
      </trkpt>
      <trkpt lat="45.31805" lon="5.64025">
        <ele>929</ele>
        <time>2020-05-13T17:21:21Z</time>
      </trkpt>
      <trkpt lat="45.31764" lon="5.64012">
        <ele>930</ele>
        <time>2020-05-13T17:21:55Z</time>
      </trkpt>
      <trkpt lat="45.31714" lon="5.63977">
        <ele>905</ele>
        <time>2020-05-13T17:22:39Z</time>
      </trkpt>
      <trkpt lat="45.3166" lon="5.63992">
        <ele>878</ele>
        <time>2020-05-13T17:23:23Z</time>
      </trkpt>
      <trkpt lat="45.31708" lon="5.63963">
        <ele>897</ele>
        <time>2020-05-13T17:24:05Z</time>
      </trkpt>
      <trkpt lat="45.31746" lon="5.64019">
        <ele>929</ele>
        <time>2020-05-13T17:24:49Z</time>
      </trkpt>
      <trkpt lat="45.31796" lon="5.6403">
        <ele>929</ele>
        <time>2020-05-13T17:25:30Z</time>
      </trkpt>
      <trkpt lat="45.31862" lon="5.63975">
        <ele>916</ele>
        <time>2020-05-13T17:26:31Z</time>
      </trkpt>
      <trkpt lat="45.31852" lon="5.63892">
        <ele>903</ele>
        <time>2020-05-13T17:27:18Z</time>
      </trkpt>
      <trkpt lat="45.31861" lon="5.63851">
        <ele>896</ele>
        <time>2020-05-13T17:27:42Z</time>
      </trkpt>
      <trkpt lat="45.31948" lon="5.6384">
        <ele>885</ele>
        <time>2020-05-13T17:28:52Z</time>
      </trkpt>
      <trkpt lat="45.31999" lon="5.63872">
        <ele>881</ele>
        <time>2020-05-13T17:29:37Z</time>
      </trkpt>
      <trkpt lat="45.32072" lon="5.63924">
        <ele>882</ele>
        <time>2020-05-13T17:30:42Z</time>
      </trkpt>
      <trkpt lat="45.32128" lon="5.6398">
        <ele>883</ele>
        <time>2020-05-13T17:31:37Z</time>
      </trkpt>
      <trkpt lat="45.32154" lon="5.64058">
        <ele>879</ele>
        <time>2020-05-13T17:32:26Z</time>
      </trkpt>
      <trkpt lat="45.32215" lon="5.64122">
        <ele>876</ele>
        <time>2020-05-13T17:33:26Z</time>
      </trkpt>
      <trkpt lat="45.3225" lon="5.64181">
        <ele>874</ele>
        <time>2020-05-13T17:34:10Z</time>
      </trkpt>
      <trkpt lat="45.32342" lon="5.64255">
        <ele>864</ele>
        <time>2020-05-13T17:35:35Z</time>
      </trkpt>
      <trkpt lat="45.32417" lon="5.64344">
        <ele>857</ele>
        <time>2020-05-13T17:36:53Z</time>
      </trkpt>
      <trkpt lat="45.32496" lon="5.64403">
        <ele>840</ele>
        <time>2020-05-13T17:38:04Z</time>
      </trkpt>
      <trkpt lat="45.32611" lon="5.6441">
        <ele>816</ele>
        <time>2020-05-13T17:39:36Z</time>
      </trkpt>
      <trkpt lat="45.32665" lon="5.64497">
        <ele>799</ele>
        <time>2020-05-13T17:40:42Z</time>
      </trkpt>
      <trkpt lat="45.32744" lon="5.64507">
        <ele>792</ele>
        <time>2020-05-13T17:41:45Z</time>
      </trkpt>
      <trkpt lat="45.32841" lon="5.64418">
        <ele>789</ele>
        <time>2020-05-13T17:43:18Z</time>
      </trkpt>
      <trkpt lat="45.32887" lon="5.64546">
        <ele>785</ele>
        <time>2020-05-13T17:44:39Z</time>
      </trkpt>
      <trkpt lat="45.32952" lon="5.64627">
        <ele>775</ele>
        <time>2020-05-13T17:45:48Z</time>
      </trkpt>
      <trkpt lat="45.33043" lon="5.64609">
        <ele>771</ele>
        <time>2020-05-13T17:47:01Z</time>
      </trkpt>
      <trkpt lat="45.33086" lon="5.64597">
        <ele>769</ele>
        <time>2020-05-13T17:47:36Z</time>
      </trkpt>
      <trkpt lat="45.33121" lon="5.64658">
        <ele>763</ele>
        <time>2020-05-13T17:48:21Z</time>
      </trkpt>
      <trkpt lat="45.33162" lon="5.6462">
        <ele>763</ele>
        <time>2020-05-13T17:49:00Z</time>
      </trkpt>
      <trkpt lat="45.33246" lon="5.64604">
        <ele>760</ele>
        <time>2020-05-13T17:50:08Z</time>
      </trkpt>
      <trkpt lat="45.33329" lon="5.64632">
        <ele>752</ele>
        <time>2020-05-13T17:51:16Z</time>
      </trkpt>
      <trkpt lat="45.33372" lon="5.64592">
        <ele>753</ele>
        <time>2020-05-13T17:51:57Z</time>
      </trkpt>
      <trkpt lat="45.33504" lon="5.64612">
        <ele>738</ele>
        <time>2020-05-13T17:53:43Z</time>
      </trkpt>
      <trkpt lat="45.33596" lon="5.64666">
        <ele>720</ele>
        <time>2020-05-13T17:55:03Z</time>
      </trkpt>
      <trkpt lat="45.3349" lon="5.64757">
        <ele>702</ele>
        <time>2020-05-13T17:56:42Z</time>
      </trkpt>
      <trkpt lat="45.33596" lon="5.64793">
        <ele>692</ele>
        <time>2020-05-13T17:58:09Z</time>
      </trkpt>
      <trkpt lat="45.33662" lon="5.64859">
        <ele>679</ele>
        <time>2020-05-13T17:59:14Z</time>
      </trkpt>
      <trkpt lat="45.33693" lon="5.64867">
        <ele>678</ele>
        <time>2020-05-13T17:59:39Z</time>
      </trkpt>
      <trkpt lat="45.33705" lon="5.64801">
        <ele>683</ele>
        <time>2020-05-13T18:00:18Z</time>
      </trkpt>
      <trkpt lat="45.33777" lon="5.6475">
        <ele>683</ele>
        <time>2020-05-13T18:01:22Z</time>
      </trkpt>
      <trkpt lat="45.3384" lon="5.64696">
        <ele>688</ele>
        <time>2020-05-13T18:02:21Z</time>
      </trkpt>
      <trkpt lat="45.33924" lon="5.64673">
        <ele>684</ele>
        <time>2020-05-13T18:03:29Z</time>
      </trkpt>
      <trkpt lat="45.34023" lon="5.64576">
        <ele>692</ele>
        <time>2020-05-13T18:05:06Z</time>
      </trkpt>
      <trkpt lat="45.34111" lon="5.64489">
        <ele>693</ele>
        <time>2020-05-13T18:06:32Z</time>
      </trkpt>
      <trkpt lat="45.34175" lon="5.64398">
        <ele>682</ele>
        <time>2020-05-13T18:07:44Z</time>
      </trkpt>
      <trkpt lat="45.34252" lon="5.64433">
        <ele>671</ele>
        <time>2020-05-13T18:08:49Z</time>
      </trkpt>
      <trkpt lat="45.34283" lon="5.64385">
        <ele>669</ele>
        <time>2020-05-13T18:09:25Z</time>
      </trkpt>
      <trkpt lat="45.34249" lon="5.64288">
        <ele>672</ele>
        <time>2020-05-13T18:10:26Z</time>
      </trkpt>
      <trkpt lat="45.34238" lon="5.64242">
        <ele>679</ele>
        <time>2020-05-13T18:10:54Z</time>
      </trkpt>
      <trkpt lat="45.34245" lon="5.64125">
        <ele>674</ele>
        <time>2020-05-13T18:12:00Z</time>
      </trkpt>
      <trkpt lat="45.34197" lon="5.64015">
        <ele>672</ele>
        <time>2020-05-13T18:13:13Z</time>
      </trkpt>
      <trkpt lat="45.34242" lon="5.63938">
        <ele>656</ele>
        <time>2020-05-13T18:14:09Z</time>
      </trkpt>
      <trkpt lat="45.34288" lon="5.63897">
        <ele>644</ele>
        <time>2020-05-13T18:14:52Z</time>
      </trkpt>
      <trkpt lat="45.34335" lon="5.63951">
        <ele>635</ele>
        <time>2020-05-13T18:15:41Z</time>
      </trkpt>
      <trkpt lat="45.34349" lon="5.63737">
        <ele>614</ele>
        <time>2020-05-13T18:17:42Z</time>
      </trkpt>
      <trkpt lat="45.34525" lon="5.63719">
        <ele>598</ele>
        <time>2020-05-13T18:20:03Z</time>
      </trkpt>
      <trkpt lat="45.34604" lon="5.63533">
        <ele>580</ele>
        <time>2020-05-13T18:22:05Z</time>
      </trkpt>
      <trkpt lat="45.34563" lon="5.63367">
        <ele>562</ele>
        <time>2020-05-13T18:23:44Z</time>
      </trkpt>
      <trkpt lat="45.34509" lon="5.63237">
        <ele>544</ele>
        <time>2020-05-13T18:25:09Z</time>
      </trkpt>
      <trkpt lat="45.34421" lon="5.63043">
        <ele>520</ele>
        <time>2020-05-13T18:27:19Z</time>
      </trkpt>
      <trkpt lat="45.34374" lon="5.62999">
        <ele>512</ele>
        <time>2020-05-13T18:28:04Z</time>
      </trkpt>
      <trkpt lat="45.34367" lon="5.62951">
        <ele>505</ele>
        <time>2020-05-13T18:28:32Z</time>
      </trkpt>
      <trkpt lat="45.34315" lon="5.62867">
        <ele>487</ele>
        <time>2020-05-13T18:29:35Z</time>
      </trkpt>
      <trkpt lat="45.34376" lon="5.62785">
        <ele>473</ele>
        <time>2020-05-13T18:30:42Z</time>
      </trkpt>
      <trkpt lat="45.34394" lon="5.62693">
        <ele>454</ele>
        <time>2020-05-13T18:31:36Z</time>
      </trkpt>
      <trkpt lat="45.34389" lon="5.6266">
        <ele>447</ele>
        <time>2020-05-13T18:31:55Z</time>
      </trkpt>
      <trkpt lat="45.34423" lon="5.62599">
        <ele>438</ele>
        <time>2020-05-13T18:32:39Z</time>
      </trkpt>
      <trkpt lat="45.34366" lon="5.62584">
        <ele>432</ele>
        <time>2020-05-13T18:33:25Z</time>
      </trkpt>
      <trkpt lat="45.3432" lon="5.62614">
        <ele>433</ele>
        <time>2020-05-13T18:34:06Z</time>
      </trkpt>
      <trkpt lat="45.3428" lon="5.62675">
        <ele>440</ele>
        <time>2020-05-13T18:34:53Z</time>
      </trkpt>
      <trkpt lat="45.34226" lon="5.62698">
        <ele>434</ele>
        <time>2020-05-13T18:35:38Z</time>
      </trkpt>
      <trkpt lat="45.34194" lon="5.62742">
        <ele>437</ele>
        <time>2020-05-13T18:36:13Z</time>
      </trkpt>
      <trkpt lat="45.34153" lon="5.62755">
        <ele>428</ele>
        <time>2020-05-13T18:36:47Z</time>
      </trkpt>
      <trkpt lat="45.34126" lon="5.62787">
        <ele>422</ele>
        <time>2020-05-13T18:37:15Z</time>
      </trkpt>
      <trkpt lat="45.34117" lon="5.62837">
        <ele>423</ele>
        <time>2020-05-13T18:37:44Z</time>
      </trkpt>
      <trkpt lat="45.34117" lon="5.62869">
        <ele>426</ele>
        <time>2020-05-13T18:38:02Z</time>
      </trkpt>
      <trkpt lat="45.34094" lon="5.62916">
        <ele>421</ele>
        <time>2020-05-13T18:38:34Z</time>
      </trkpt>
      <trkpt lat="45.34063" lon="5.6289">
        <ele>409</ele>
        <time>2020-05-13T18:39:03Z</time>
      </trkpt>
      <trkpt lat="45.34056" lon="5.62866">
        <ele>405</ele>
        <time>2020-05-13T18:39:18Z</time>
      </trkpt>
      <trkpt lat="45.3404" lon="5.62869">
        <ele>400</ele>
        <time>2020-05-13T18:39:31Z</time>
      </trkpt>
      <trkpt lat="45.34022" lon="5.62858">
        <ele>393</ele>
        <time>2020-05-13T18:39:46Z</time>
      </trkpt>
      <trkpt lat="45.33989" lon="5.62874">
        <ele>387</ele>
        <time>2020-05-13T18:40:14Z</time>
      </trkpt>
      <trkpt lat="45.33893" lon="5.62934">
        <ele>395</ele>
        <time>2020-05-13T18:41:38Z</time>
      </trkpt>
      <trkpt lat="45.33854" lon="5.62968">
        <ele>407</ele>
        <time>2020-05-13T18:42:15Z</time>
      </trkpt>
      <trkpt lat="45.3382" lon="5.62966">
        <ele>407</ele>
        <time>2020-05-13T18:42:42Z</time>
      </trkpt>
      <trkpt lat="45.33787" lon="5.62965">
        <ele>407</ele>
        <time>2020-05-13T18:43:09Z</time>
      </trkpt>
      <trkpt lat="45.33732" lon="5.63037">
        <ele>427</ele>
        <time>2020-05-13T18:44:08Z</time>
      </trkpt>
      <trkpt lat="45.33678" lon="5.63066">
        <ele>433</ele>
        <time>2020-05-13T18:44:55Z</time>
      </trkpt>
      <trkpt lat="45.33647" lon="5.63084">
        <ele>436</ele>
        <time>2020-05-13T18:45:21Z</time>
      </trkpt>
      <trkpt lat="45.33601" lon="5.63097">
        <ele>437</ele>
        <time>2020-05-13T18:45:59Z</time>
      </trkpt>
      <trkpt lat="45.33565" lon="5.63142">
        <ele>447</ele>
        <time>2020-05-13T18:46:37Z</time>
      </trkpt>
      <trkpt lat="45.33475" lon="5.63172">
        <ele>450</ele>
        <time>2020-05-13T18:47:51Z</time>
      </trkpt>
      <trkpt lat="45.33383" lon="5.63135">
        <ele>452</ele>
        <time>2020-05-13T18:49:08Z</time>
      </trkpt>
      <trkpt lat="45.33235" lon="5.63084">
        <ele>458</ele>
        <time>2020-05-13T18:51:10Z</time>
      </trkpt>
      <trkpt lat="45.33083" lon="5.63037">
        <ele>449</ele>
        <time>2020-05-13T18:53:14Z</time>
      </trkpt>
      <trkpt lat="45.32917" lon="5.63077">
        <ele>464</ele>
        <time>2020-05-13T18:55:29Z</time>
      </trkpt>
      <trkpt lat="45.32833" lon="5.63086">
        <ele>461</ele>
        <time>2020-05-13T18:56:37Z</time>
      </trkpt>
      <trkpt lat="45.32791" lon="5.63091">
        <ele>466</ele>
        <time>2020-05-13T18:57:10Z</time>
      </trkpt>
      <trkpt lat="45.32739" lon="5.63062">
        <ele>464</ele>
        <time>2020-05-13T18:57:55Z</time>
      </trkpt>
      <trkpt lat="45.32624" lon="5.63135">
        <ele>500</ele>
        <time>2020-05-13T18:59:36Z</time>
      </trkpt>
      <trkpt lat="45.32507" lon="5.63152">
        <ele>515</ele>
        <time>2020-05-13T19:01:10Z</time>
      </trkpt>
      <trkpt lat="45.32455" lon="5.63155">
        <ele>523</ele>
        <time>2020-05-13T19:01:52Z</time>
      </trkpt>
      <trkpt lat="45.32426" lon="5.63173">
        <ele>534</ele>
        <time>2020-05-13T19:02:17Z</time>
      </trkpt>
      <trkpt lat="45.32387" lon="5.63155">
        <ele>532</ele>
        <time>2020-05-13T19:02:50Z</time>
      </trkpt>
      <trkpt lat="45.32355" lon="5.63175">
        <ele>544</ele>
        <time>2020-05-13T19:03:18Z</time>
      </trkpt>
      <trkpt lat="45.32304" lon="5.63175">
        <ele>548</ele>
        <time>2020-05-13T19:03:59Z</time>
      </trkpt>
      <trkpt lat="45.32173" lon="5.63178">
        <ele>557</ele>
        <time>2020-05-13T19:05:44Z</time>
      </trkpt>
      <trkpt lat="45.32119" lon="5.63216">
        <ele>566</ele>
        <time>2020-05-13T19:06:32Z</time>
      </trkpt>
      <trkpt lat="45.32085" lon="5.63216">
        <ele>566</ele>
        <time>2020-05-13T19:06:59Z</time>
      </trkpt>
      <trkpt lat="45.32026" lon="5.63262">
        <ele>581</ele>
        <time>2020-05-13T19:07:53Z</time>
      </trkpt>
      <trkpt lat="45.31965" lon="5.63262">
        <ele>585</ele>
        <time>2020-05-13T19:08:42Z</time>
      </trkpt>
      <trkpt lat="45.31911" lon="5.63303">
        <ele>602</ele>
        <time>2020-05-13T19:09:31Z</time>
      </trkpt>
      <trkpt lat="45.31827" lon="5.63295">
        <ele>602</ele>
        <time>2020-05-13T19:10:38Z</time>
      </trkpt>
      <trkpt lat="45.31784" lon="5.63334">
        <ele>607</ele>
        <time>2020-05-13T19:11:19Z</time>
      </trkpt>
      <trkpt lat="45.31739" lon="5.63367">
        <ele>615</ele>
        <time>2020-05-13T19:12:00Z</time>
      </trkpt>
      <trkpt lat="45.31658" lon="5.634">
        <ele>621</ele>
        <time>2020-05-13T19:13:07Z</time>
      </trkpt>
      <trkpt lat="45.31576" lon="5.63441">
        <ele>624</ele>
        <time>2020-05-13T19:14:17Z</time>
      </trkpt>
      <trkpt lat="45.31491" lon="5.63466">
        <ele>620</ele>
        <time>2020-05-13T19:15:26Z</time>
      </trkpt>
      <trkpt lat="45.3145" lon="5.63487">
        <ele>619</ele>
        <time>2020-05-13T19:16:01Z</time>
      </trkpt>
      <trkpt lat="45.3142" lon="5.63576">
        <ele>630</ele>
        <time>2020-05-13T19:16:57Z</time>
      </trkpt>
      <trkpt lat="45.31344" lon="5.63742">
        <ele>636</ele>
        <time>2020-05-13T19:18:48Z</time>
      </trkpt>
      <trkpt lat="45.31305" lon="5.63818">
        <ele>629</ele>
        <time>2020-05-13T19:19:41Z</time>
      </trkpt>
      <trkpt lat="45.31337" lon="5.63933">
        <ele>633</ele>
        <time>2020-05-13T19:20:51Z</time>
      </trkpt>
      <trkpt lat="45.31348" lon="5.64061">
        <ele>618</ele>
        <time>2020-05-13T19:22:03Z</time>
      </trkpt>
      <trkpt lat="45.31339" lon="5.64193">
        <ele>597</ele>
        <time>2020-05-13T19:23:18Z</time>
      </trkpt>
      <trkpt lat="45.31301" lon="5.64262">
        <ele>579</ele>
        <time>2020-05-13T19:24:07Z</time>
      </trkpt>
      <trkpt lat="45.31319" lon="5.64357">
        <ele>580</ele>
        <time>2020-05-13T19:25:03Z</time>
      </trkpt>
      <trkpt lat="45.31312" lon="5.64456">
        <ele>567</ele>
        <time>2020-05-13T19:25:59Z</time>
      </trkpt>
      <trkpt lat="45.31323" lon="5.64561">
        <ele>559</ele>
        <time>2020-05-13T19:26:59Z</time>
      </trkpt>
      <trkpt lat="45.31398" lon="5.64704">
        <ele>544</ele>
        <time>2020-05-13T19:28:39Z</time>
      </trkpt>
      <trkpt lat="45.31533" lon="5.64877">
        <ele>538</ele>
        <time>2020-05-13T19:31:05Z</time>
      </trkpt>
      <trkpt lat="45.31666" lon="5.6502">
        <ele>541</ele>
        <time>2020-05-13T19:33:18Z</time>
      </trkpt>
      <trkpt lat="45.31797" lon="5.6513">
        <ele>543</ele>
        <time>2020-05-13T19:35:20Z</time>
      </trkpt>
      <trkpt lat="45.31875" lon="5.65181">
        <ele>550</ele>
        <time>2020-05-13T19:36:29Z</time>
      </trkpt>
      <trkpt lat="45.31976" lon="5.65214">
        <ele>558</ele>
        <time>2020-05-13T19:37:52Z</time>
      </trkpt>
      <trkpt lat="45.3206" lon="5.65332">
        <ele>529</ele>
        <time>2020-05-13T19:39:26Z</time>
      </trkpt>
      <trkpt lat="45.31877" lon="5.65288">
        <ele>517</ele>
        <time>2020-05-13T19:41:55Z</time>
      </trkpt>
      <trkpt lat="45.31879" lon="5.65316">
        <ele>511</ele>
        <time>2020-05-13T19:42:11Z</time>
      </trkpt>
      <trkpt lat="45.31909" lon="5.65328">
        <ele>512</ele>
        <time>2020-05-13T19:42:36Z</time>
      </trkpt>
      <trkpt lat="45.31917" lon="5.65365">
        <ele>507</ele>
        <time>2020-05-13T19:42:57Z</time>
      </trkpt>
      <trkpt lat="45.31875" lon="5.65486">
        <ele>498</ele>
        <time>2020-05-13T19:44:13Z</time>
      </trkpt>
      <trkpt lat="45.31827" lon="5.65583">
        <ele>504</ele>
        <time>2020-05-13T19:45:20Z</time>
      </trkpt>
      <trkpt lat="45.31778" lon="5.65617">
        <ele>509</ele>
        <time>2020-05-13T19:46:04Z</time>
      </trkpt>
      <trkpt lat="45.31774" lon="5.65803">
        <ele>530</ele>
        <time>2020-05-13T19:47:49Z</time>
      </trkpt>
      <trkpt lat="45.32022" lon="5.65811">
        <ele>527</ele>
        <time>2020-05-13T19:51:07Z</time>
      </trkpt>
      <trkpt lat="45.32217" lon="5.65809">
        <ele>526</ele>
        <time>2020-05-13T19:53:43Z</time>
      </trkpt>
      <trkpt lat="45.3237" lon="5.65769">
        <ele>530</ele>
        <time>2020-05-13T19:55:48Z</time>
      </trkpt>
      <trkpt lat="45.32495" lon="5.65786">
        <ele>542</ele>
        <time>2020-05-13T19:57:28Z</time>
      </trkpt>
      <trkpt lat="45.32555" lon="5.65776">
        <ele>550</ele>
        <time>2020-05-13T19:58:17Z</time>
      </trkpt>
      <trkpt lat="45.32596" lon="5.65798">
        <ele>555</ele>
        <time>2020-05-13T19:58:52Z</time>
      </trkpt>
      <trkpt lat="45.32658" lon="5.65984">
        <ele>574</ele>
        <time>2020-05-13T20:00:48Z</time>
      </trkpt>
      <trkpt lat="45.32636" lon="5.6607">
        <ele>582</ele>
        <time>2020-05-13T20:01:39Z</time>
      </trkpt>
      <trkpt lat="45.32709" lon="5.66096">
        <ele>589</ele>
        <time>2020-05-13T20:02:39Z</time>
      </trkpt>
      <trkpt lat="45.32751" lon="5.66057">
        <ele>589</ele>
        <time>2020-05-13T20:03:20Z</time>
      </trkpt>
      <trkpt lat="45.32765" lon="5.66015">
        <ele>587</ele>
        <time>2020-05-13T20:03:46Z</time>
      </trkpt>
      <trkpt lat="45.32939" lon="5.65836">
        <ele>589</ele>
        <time>2020-05-13T20:06:38Z</time>
      </trkpt>
      <trkpt lat="45.33005" lon="5.65823">
        <ele>590</ele>
        <time>2020-05-13T20:07:31Z</time>
      </trkpt>
    </trkseg>
  </trk>
</gpx>